Garcia Miguel — CUGT9 — position and weather

sailwx.info

Track history (hours):
 
Tides and Currents Weather Stations Pressure Air Temp Water Temp Dewpoint Dewpoint Depression Visibility Wind Speed Wind Dir Waves Ship Positions

Garcia Miguel

Last reported at 2017-Aug-18 16:53 UTC. Time now 2017-Aug-19 07:27 UTC.
Position N 33°44' W 014°25'.

Length 20 m.

Type: Fishing. MMSI: 263500286.

Date/timePositionNaut miles runAvg speedWind from/ knotsBaromVisibWave heightAir tempDewpointWater temp
2017-Aug-18 16:53N 33°44' W 014°25'1 0.0
2017-Aug-17 04:46N 33°43' W 014°26'  
2017-Aug-14 08:21N 35°11' W 012°36'31 7.6
2017-Aug-14 04:14N 35°35' W 012°12'2 7.9
2017-Aug-14 04:00N 35°37' W 012°10'5 7.9
2017-Aug-14 03:23N 35°41' W 012°07'3 7.7
2017-Aug-14 03:00N 35°43' W 012°05'9 7.9
2017-Aug-14 01:48N 35°51' W 011°58'27 8.0
2017-Aug-13 22:28N 36°12' W 011°38'19 7.6
2017-Aug-13 19:54N 36°27' W 011°23'3 7.7
2017-Aug-13 19:30N 36°29' W 011°20'4 7.6
2017-Aug-13 19:00N 36°32' W 011°17'4 7.5
2017-Aug-13 18:30N 36°35' W 011°14'9 1.9
2017-Aug-13 13:58N 36°42' W 011°09'1 1.1
2017-Aug-13 13:29N 36°42' W 011°09'1 1.0
2017-Aug-13 13:00N 36°41' W 011°09'0 0.9
2017-Aug-13 12:30N 36°41' W 011°09'0 0.2
2017-Aug-13 11:41N 36°41' W 011°09'0 1.0
2017-Aug-13 11:30N 36°41' W 011°09'1 1.1
2017-Aug-13 10:38N 36°42' W 011°09'0 1.0
2017-Aug-13 10:29N 36°42' W 011°09'0 1.0
2017-Aug-13 09:59N 36°43' W 011°09'1 0.9
2017-Aug-13 09:18N 36°43' W 011°09'0 0.4
2017-Aug-13 08:58N 36°43' W 011°09'0 0.6
2017-Aug-13 08:30N 36°43' W 011°09'0 0.7
2017-Aug-13 07:59N 36°43' W 011°09'0 0.9
2017-Aug-13 07:30N 36°42' W 011°09'0 0.9
2017-Aug-13 07:00N 36°42' W 011°09'0 0.9
2017-Aug-13 06:29N 36°41' W 011°09'0 0.9
2017-Aug-13 06:00N 36°41' W 011°09'0 0.7
2017-Aug-13 05:30N 36°41' W 011°09'1 1.8
2017-Aug-13 05:00N 36°41' W 011°09'1 1.0
2017-Aug-13 04:30N 36°42' W 011°09'1 1.4
2017-Aug-13 04:00N 36°43' W 011°09'1 2.2
2017-Aug-13 03:30N 36°41' W 011°09'1 1.1
2017-Aug-13 03:00N 36°41' W 011°09'0 0.1
2017-Aug-13 02:30N 36°41' W 011°09'1 2.8
2017-Aug-13 02:00N 36°40' W 011°09'5 6.4
2017-Aug-13 01:18N 36°44' W 011°05'7 7.5
2017-Aug-13 00:25N 36°50' W 011°02'4 8.0
2017-Aug-12 23:58N 36°53' W 010°59'4 8.0
2017-Aug-12 23:30N 36°56' W 010°57'4 7.9
2017-Aug-12 23:00N 36°60' W 010°55'5 8.0
2017-Aug-12 22:24N 37°04' W 010°52'3 7.9
2017-Aug-12 21:59N 37°07' W 010°51'4 7.8
2017-Aug-12 21:29N 37°10' W 010°48'4 7.7
2017-Aug-12 21:00N 37°14' W 010°46'4 7.5
2017-Aug-12 20:30N 37°17' W 010°44'4 7.2
2017-Aug-12 20:00N 37°20' W 010°41'4 7.2
2017-Aug-12 19:30N 37°23' W 010°39'4 7.2
2017-Aug-12 19:00N 37°26' W 010°36'4 7.2
2017-Aug-12 18:30N 37°29' W 010°34'4 7.1
2017-Aug-12 18:00N 37°32' W 010°32'3 6.9
2017-Aug-12 17:30N 37°35' W 010°30'4 7.0
2017-Aug-12 17:00N 37°38' W 010°28'4 7.1
2017-Aug-12 16:30N 37°41' W 010°25'4 7.3
2017-Aug-12 16:00N 37°44' W 010°23'4 7.4
2017-Aug-12 15:30N 37°47' W 010°20'4 7.2
2017-Aug-12 15:00N 37°50' W 010°18'4 7.6
2017-Aug-12 14:30N 37°54' W 010°16'4 7.5
2017-Aug-12 14:00N 37°57' W 010°13'4 7.5
2017-Aug-12 13:30N 38°00' W 010°11'4 7.4
2017-Aug-12 13:00N 38°03' W 010°09'4 7.1
2017-Aug-12 12:30N 38°06' W 010°06'3 7.0
2017-Aug-12 12:00N 38°09' W 010°04'4 7.3
2017-Aug-12 11:30N 38°13' W 010°02'4 7.3
2017-Aug-12 11:00N 38°16' W 009°59'4 7.8
2017-Aug-12 10:30N 38°19' W 009°57'4 7.8
2017-Aug-12 10:00N 38°23' W 009°55'4 7.4
2017-Aug-12 09:30N 38°26' W 009°53'4 7.2
2017-Aug-12 09:00N 38°29' W 009°51'4 7.7
2017-Aug-12 08:30N 38°33' W 009°49'4 8.0
2017-Aug-12 08:00N 38°36' W 009°46'4 7.4
2017-Aug-12 07:30N 38°40' W 009°44'4 7.6
2017-Aug-12 07:00N 38°43' W 009°42'4 8.0
2017-Aug-12 06:30N 38°47' W 009°40'4 7.7
2017-Aug-12 06:00N 38°50' W 009°38'4 7.5
2017-Aug-12 05:30N 38°54' W 009°36'4 7.4
2017-Aug-12 05:00N 38°57' W 009°34'4 7.5
2017-Aug-12 04:30N 39°01' W 009°32'4 7.4
2017-Aug-12 04:00N 39°04' W 009°31'4 7.3
2017-Aug-12 03:30N 39°07' W 009°29'4 7.5
2017-Aug-12 03:00N 39°11' W 009°27'4 7.5
2017-Aug-12 02:30N 39°14' W 009°25'4 7.7
2017-Aug-12 02:00N 39°18' W 009°23'3 6.8
2017-Aug-12 01:30N 39°21' W 009°22'0 0.1
2017-Aug-12 01:00N 39°21' W 009°22'0 0.0
2017-Aug-12 00:30N 39°21' W 009°22'0 0.0
2017-Aug-12 00:00N 39°21' W 009°22'0 0.0
2017-Aug-10 17:31N 39°21' W 009°22'0 0.0
2017-Aug-10 17:28N 39°21' W 009°22'0 0.0
2017-Aug-10 17:00N 39°21' W 009°22'0 0.0
2017-Aug-10 16:25N 39°21' W 009°22'0 0.0
2017-Aug-10 16:00N 39°21' W 009°22'0 0.0
2017-Aug-10 15:30N 39°21' W 009°22'0 0.0
2017-Aug-10 15:00N 39°21' W 009°22'0 0.0
2017-Aug-10 14:30N 39°21' W 009°22'0 0.0
2017-Aug-10 12:35N 39°21' W 009°22'0 0.0
2017-Aug-10 12:30N 39°21' W 009°22'  
Track history (hours):
 
Tides and Currents Weather Stations Pressure Air Temp Water Temp Dewpoint Dewpoint Depression Visibility Wind Speed Wind Dir Waves Ship Positions

Garcia Miguel

Last reported at 2017-Aug-18 16:53 UTC. Time now 2017-Aug-19 07:27 UTC.
Position N 33°44' W 014°25'.

Length 20 m.

Type: Fishing. MMSI: 263500286.

Date/timePositionNaut miles runAvg speedWind from/ knotsBaromVisibWave heightAir tempDewpointWater temp
2017-Aug-18 16:53N 33°44' W 014°25'1 0.0
2017-Aug-17 04:46N 33°43' W 014°26'  
2017-Aug-14 08:21N 35°11' W 012°36'31 7.6
2017-Aug-14 04:14N 35°35' W 012°12'2 7.9
2017-Aug-14 04:00N 35°37' W 012°10'5 7.9
2017-Aug-14 03:23N 35°41' W 012°07'3 7.7
2017-Aug-14 03:00N 35°43' W 012°05'9 7.9
2017-Aug-14 01:48N 35°51' W 011°58'27 8.0
2017-Aug-13 22:28N 36°12' W 011°38'19 7.6
2017-Aug-13 19:54N 36°27' W 011°23'3 7.7
2017-Aug-13 19:30N 36°29' W 011°20'4 7.6
2017-Aug-13 19:00N 36°32' W 011°17'4 7.5
2017-Aug-13 18:30N 36°35' W 011°14'9 1.9
2017-Aug-13 13:58N 36°42' W 011°09'1 1.1
2017-Aug-13 13:29N 36°42' W 011°09'1 1.0
2017-Aug-13 13:00N 36°41' W 011°09'0 0.9
2017-Aug-13 12:30N 36°41' W 011°09'0 0.2
2017-Aug-13 11:41N 36°41' W 011°09'0 1.0
2017-Aug-13 11:30N 36°41' W 011°09'1 1.1
2017-Aug-13 10:38N 36°42' W 011°09'0 1.0
2017-Aug-13 10:29N 36°42' W 011°09'0 1.0
2017-Aug-13 09:59N 36°43' W 011°09'1 0.9
2017-Aug-13 09:18N 36°43' W 011°09'0 0.4
2017-Aug-13 08:58N 36°43' W 011°09'0 0.6
2017-Aug-13 08:30N 36°43' W 011°09'0 0.7
2017-Aug-13 07:59N 36°43' W 011°09'0 0.9
2017-Aug-13 07:30N 36°42' W 011°09'0 0.9
2017-Aug-13 07:00N 36°42' W 011°09'0 0.9
2017-Aug-13 06:29N 36°41' W 011°09'0 0.9
2017-Aug-13 06:00N 36°41' W 011°09'0 0.7
2017-Aug-13 05:30N 36°41' W 011°09'1 1.8
2017-Aug-13 05:00N 36°41' W 011°09'1 1.0
2017-Aug-13 04:30N 36°42' W 011°09'1 1.4
2017-Aug-13 04:00N 36°43' W 011°09'1 2.2
2017-Aug-13 03:30N 36°41' W 011°09'1 1.1
2017-Aug-13 03:00N 36°41' W 011°09'0 0.1
2017-Aug-13 02:30N 36°41' W 011°09'1 2.8
2017-Aug-13 02:00N 36°40' W 011°09'5 6.4
2017-Aug-13 01:18N 36°44' W 011°05'7 7.5
2017-Aug-13 00:25N 36°50' W 011°02'4 8.0
2017-Aug-12 23:58N 36°53' W 010°59'4 8.0
2017-Aug-12 23:30N 36°56' W 010°57'4 7.9
2017-Aug-12 23:00N 36°60' W 010°55'5 8.0
2017-Aug-12 22:24N 37°04' W 010°52'3 7.9
2017-Aug-12 21:59N 37°07' W 010°51'4 7.8
2017-Aug-12 21:29N 37°10' W 010°48'4 7.7
2017-Aug-12 21:00N 37°14' W 010°46'4 7.5
2017-Aug-12 20:30N 37°17' W 010°44'4 7.2
2017-Aug-12 20:00N 37°20' W 010°41'4 7.2
2017-Aug-12 19:30N 37°23' W 010°39'4 7.2
2017-Aug-12 19:00N 37°26' W 010°36'4 7.2
2017-Aug-12 18:30N 37°29' W 010°34'4 7.1
2017-Aug-12 18:00N 37°32' W 010°32'3 6.9
2017-Aug-12 17:30N 37°35' W 010°30'4 7.0
2017-Aug-12 17:00N 37°38' W 010°28'4 7.1
2017-Aug-12 16:30N 37°41' W 010°25'4 7.3
2017-Aug-12 16:00N 37°44' W 010°23'4 7.4
2017-Aug-12 15:30N 37°47' W 010°20'4 7.2
2017-Aug-12 15:00N 37°50' W 010°18'4 7.6
2017-Aug-12 14:30N 37°54' W 010°16'4 7.5
2017-Aug-12 14:00N 37°57' W 010°13'4 7.5
2017-Aug-12 13:30N 38°00' W 010°11'4 7.4
2017-Aug-12 13:00N 38°03' W 010°09'4 7.1
2017-Aug-12 12:30N 38°06' W 010°06'3 7.0
2017-Aug-12 12:00N 38°09' W 010°04'4 7.3
2017-Aug-12 11:30N 38°13' W 010°02'4 7.3
2017-Aug-12 11:00N 38°16' W 009°59'4 7.8
2017-Aug-12 10:30N 38°19' W 009°57'4 7.8
2017-Aug-12 10:00N 38°23' W 009°55'4 7.4
2017-Aug-12 09:30N 38°26' W 009°53'4 7.2
2017-Aug-12 09:00N 38°29' W 009°51'4 7.7
2017-Aug-12 08:30N 38°33' W 009°49'4 8.0
2017-Aug-12 08:00N 38°36' W 009°46'4 7.4
2017-Aug-12 07:30N 38°40' W 009°44'4 7.6
2017-Aug-12 07:00N 38°43' W 009°42'4 8.0
2017-Aug-12 06:30N 38°47' W 009°40'4 7.7
2017-Aug-12 06:00N 38°50' W 009°38'4 7.5
2017-Aug-12 05:30N 38°54' W 009°36'4 7.4
2017-Aug-12 05:00N 38°57' W 009°34'4 7.5
2017-Aug-12 04:30N 39°01' W 009°32'4 7.4
2017-Aug-12 04:00N 39°04' W 009°31'4 7.3
2017-Aug-12 03:30N 39°07' W 009°29'4 7.5
2017-Aug-12 03:00N 39°11' W 009°27'4 7.5
2017-Aug-12 02:30N 39°14' W 009°25'4 7.7
2017-Aug-12 02:00N 39°18' W 009°23'3 6.8
2017-Aug-12 01:30N 39°21' W 009°22'0 0.1
2017-Aug-12 01:00N 39°21' W 009°22'0 0.0
2017-Aug-12 00:30N 39°21' W 009°22'0 0.0
2017-Aug-12 00:00N 39°21' W 009°22'0 0.0
2017-Aug-10 17:31N 39°21' W 009°22'0 0.0
2017-Aug-10 17:28N 39°21' W 009°22'0 0.0
2017-Aug-10 17:00N 39°21' W 009°22'0 0.0
2017-Aug-10 16:25N 39°21' W 009°22'0 0.0
2017-Aug-10 16:00N 39°21' W 009°22'0 0.0
2017-Aug-10 15:30N 39°21' W 009°22'0 0.0
2017-Aug-10 15:00N 39°21' W 009°22'0 0.0
2017-Aug-10 14:30N 39°21' W 009°22'0 0.0
2017-Aug-10 12:35N 39°21' W 009°22'0 0.0
2017-Aug-10 12:30N 39°21' W 009°22'  

Dump ship's entire track history